Yichang, China
Current Conditions -  °F | °C
As of 12:00 AM on Thursday 27 Nov 2014 (Local Time) from ZHHH Reporting Station
Clear Clear  
Wind Chill: 55°   Ceiling: Unl
Heat Index: 55°   Visibility: 4mi
Dew Point: 50°   Wind: 13mph
Humidity: 82%   Direction: 90°E
Pressure: 30.03"   Gusts: NA
Location:  30.7°N, 111.28°E
Report Text: ZHHH 261600Z 09006MPS 6000 NSC 13/10 Q1017 NOSIG
Loading
Personal Weather Stations






























Interactive Weather Map New forecast layout! Learn more

10-Day Weather Forecast

Advertisements
Track Severe Weather on mobile